createdAt,value
2024-01-09T00:01:22.849Z,15
2024-01-09T00:03:06.774Z,14
2024-01-09T00:04:50.267Z,14
2024-01-09T00:06:33.921Z,14
2024-01-09T00:08:17.813Z,15
2024-01-09T00:10:01.480Z,3
2024-01-09T00:11:45.200Z,3
2024-01-09T00:13:29.064Z,2
2024-01-09T00:15:12.519Z,3
2024-01-09T00:16:56.460Z,3
2024-01-09T00:18:40.055Z,3
2024-01-09T00:20:23.750Z,4
2024-01-09T00:22:07.370Z,2
2024-01-09T00:23:51.194Z,3
2024-01-09T00:25:34.968Z,3
2024-01-09T00:27:18.355Z,2
2024-01-09T00:29:02.349Z,2
2024-01-09T00:30:46.122Z,3
2024-01-09T00:32:29.748Z,3
2024-01-09T00:34:13.312Z,3
2024-01-09T00:35:57.177Z,3
2024-01-09T00:37:40.558Z,3
2024-01-09T00:39:24.618Z,2
2024-01-09T00:41:08.254Z,3
2024-01-09T00:42:51.964Z,2
2024-01-09T00:44:35.702Z,3
2024-01-09T00:48:02.957Z,3
2024-01-09T00:49:46.697Z,2
2024-01-09T00:51:30.482Z,3
2024-01-09T00:53:14.161Z,3
2024-01-09T00:54:57.915Z,3
2024-01-09T00:56:41.588Z,3
2024-01-09T00:58:25.318Z,3
2024-01-09T01:00:08.832Z,14
2024-01-09T01:01:52.412Z,14
2024-01-09T01:03:36.328Z,14
2024-01-09T01:05:19.907Z,3
2024-01-09T01:07:03.663Z,2
2024-01-09T01:08:47.360Z,2
2024-01-09T01:10:30.910Z,2
2024-01-09T01:12:14.861Z,2
2024-01-09T01:15:42.207Z,3
2024-01-09T01:17:25.729Z,3
2024-01-09T01:19:09.452Z,2
2024-01-09T01:20:53.309Z,2
2024-01-09T01:22:36.999Z,2
2024-01-09T01:24:20.596Z,3
2024-01-09T01:26:04.227Z,3
2024-01-09T01:27:48.081Z,2
2024-01-09T01:29:31.681Z,2
2024-01-09T01:32:59.180Z,2
2024-01-09T01:34:43.071Z,2
2024-01-09T01:36:26.553Z,2
2024-01-09T01:38:10.157Z,2
2024-01-09T01:39:54.064Z,3
2024-01-09T01:41:37.835Z,3
2024-01-09T01:43:21.435Z,2
2024-01-09T01:45:05.021Z,2
2024-01-09T01:46:48.906Z,2
2024-01-09T01:48:32.426Z,3
2024-01-09T01:50:16.079Z,2
2024-01-09T01:51:59.900Z,2
2024-01-09T01:53:43.670Z,3
2024-01-09T01:55:27.308Z,3
2024-01-09T01:57:10.923Z,2
2024-01-09T01:58:54.581Z,3
2024-01-09T02:00:38.368Z,3
2024-01-09T02:02:22.015Z,3
2024-01-09T02:04:05.988Z,2
2024-01-09T02:05:49.403Z,2
2024-01-09T02:07:33.269Z,3
2024-01-09T02:09:16.862Z,2
2024-01-09T02:11:00.576Z,2
2024-01-09T02:12:44.207Z,2
2024-01-09T02:14:27.910Z,2
2024-01-09T02:16:11.849Z,2
2024-01-09T02:17:55.502Z,2
2024-01-09T02:19:39.197Z,2
2024-01-09T02:21:22.944Z,2
2024-01-09T02:23:06.465Z,2
2024-01-09T02:24:50.399Z,3
2024-01-09T02:26:34.000Z,3
2024-01-09T02:28:17.520Z,2
2024-01-09T02:30:01.536Z,2
2024-01-09T02:31:44.940Z,2
2024-01-09T02:33:28.814Z,2
2024-01-09T02:35:12.478Z,2
2024-01-09T02:36:56.024Z,3
2024-01-09T02:38:39.739Z,2
2024-01-09T02:40:23.446Z,3
2024-01-09T02:42:07.192Z,2
2024-01-09T02:43:50.907Z,2
2024-01-09T02:45:34.679Z,3
2024-01-09T02:47:18.240Z,2
2024-01-09T02:49:02.017Z,2
2024-01-09T02:50:45.648Z,2
2024-01-09T02:52:29.477Z,2
2024-01-09T02:54:13.089Z,3
2024-01-09T02:55:56.790Z,2
2024-01-09T02:57:40.485Z,2
2024-01-09T02:59:24.163Z,2
2024-01-09T03:01:08.108Z,2
2024-01-09T03:02:51.598Z,2
2024-01-09T03:04:35.269Z,3
2024-01-09T03:06:19.072Z,3
2024-01-09T03:08:02.728Z,3
2024-01-09T03:09:46.384Z,2
2024-01-09T03:11:30.366Z,2
2024-01-09T03:13:13.799Z,2
2024-01-09T03:14:57.483Z,2
2024-01-09T03:16:41.312Z,3
2024-01-09T03:18:24.936Z,3
2024-01-09T03:20:08.913Z,3
2024-01-09T03:21:52.587Z,2
2024-01-09T03:23:36.036Z,3
2024-01-09T03:25:19.709Z,2
2024-01-09T03:27:03.472Z,2
2024-01-09T03:28:47.196Z,3
2024-01-09T03:30:30.827Z,2
2024-01-09T03:32:14.521Z,2
2024-01-09T03:33:58.218Z,2
2024-01-09T03:35:41.924Z,2
2024-01-09T03:37:25.638Z,3
2024-01-09T03:39:09.325Z,3
2024-01-09T03:40:53.030Z,2
2024-01-09T03:42:36.821Z,2
2024-01-09T03:46:04.144Z,3
2024-01-09T03:47:47.838Z,2
2024-01-09T03:49:31.549Z,3
2024-01-09T03:51:15.617Z,3
2024-01-09T03:52:58.958Z,3
2024-01-09T03:54:42.649Z,2
2024-01-09T03:56:26.383Z,2
2024-01-09T03:58:10.064Z,2
2024-01-09T03:59:53.788Z,1
2024-01-09T04:01:37.485Z,2
2024-01-09T04:03:21.187Z,3
2024-01-09T04:05:04.919Z,2
2024-01-09T04:06:48.573Z,3
2024-01-09T04:08:32.493Z,3
2024-01-09T04:10:16.016Z,3
2024-01-09T04:11:59.764Z,2
2024-01-09T04:13:43.385Z,2
2024-01-09T04:15:27.127Z,3
2024-01-09T04:17:10.916Z,2
2024-01-09T04:18:54.488Z,2
2024-01-09T04:20:38.208Z,3
2024-01-09T04:22:21.958Z,2
2024-01-09T04:24:05.597Z,3
2024-01-09T04:25:49.302Z,2
2024-01-09T04:27:33.023Z,3
2024-01-09T04:29:16.713Z,2
2024-01-09T04:31:00.588Z,3
2024-01-09T04:32:44.115Z,3
2024-01-09T04:34:27.844Z,2
2024-01-09T04:36:11.510Z,2
2024-01-09T04:37:55.250Z,2
2024-01-09T04:39:38.924Z,2
2024-01-09T04:41:22.637Z,3
2024-01-09T04:43:06.336Z,3
2024-01-09T04:44:50.030Z,3
2024-01-09T04:46:33.720Z,3
2024-01-09T04:48:17.422Z,2
2024-01-09T04:50:01.180Z,3
2024-01-09T04:51:44.964Z,3
2024-01-09T04:53:28.607Z,2
2024-01-09T04:55:12.242Z,3
2024-01-09T04:56:55.957Z,3
2024-01-09T04:58:39.660Z,3
2024-01-09T05:00:23.440Z,3
2024-01-09T05:02:07.044Z,2
2024-01-09T05:03:51.041Z,3
2024-01-09T05:05:34.450Z,2
2024-01-09T05:07:18.140Z,2
2024-01-09T05:09:01.866Z,3
2024-01-09T05:10:45.555Z,2
2024-01-09T05:12:29.333Z,2
2024-01-09T05:14:12.954Z,3
2024-01-09T05:15:56.753Z,2
2024-01-09T05:17:40.494Z,3
2024-01-09T05:19:24.140Z,3
2024-01-09T05:21:08.146Z,2
2024-01-09T05:22:51.469Z,3
2024-01-09T05:24:35.220Z,3
2024-01-09T05:26:18.880Z,2
2024-01-09T05:28:02.580Z,4
2024-01-09T05:29:46.295Z,2
2024-01-09T05:31:30.037Z,2
2024-01-09T05:33:13.676Z,2
2024-01-09T05:36:41.133Z,2
2024-01-09T05:38:24.793Z,3
2024-01-09T05:40:08.548Z,2
2024-01-09T05:41:52.407Z,2
2024-01-09T05:43:35.950Z,3
2024-01-09T05:45:19.611Z,2
2024-01-09T05:47:03.415Z,2
2024-01-09T05:48:47.016Z,3
2024-01-09T05:50:30.717Z,62
2024-01-09T05:52:14.412Z,59
2024-01-09T05:53:58.119Z,58
2024-01-09T05:55:41.941Z,56
2024-01-09T05:57:25.568Z,55
2024-01-09T05:59:09.260Z,3
2024-01-09T06:00:52.989Z,3
2024-01-09T06:02:36.678Z,3
2024-01-09T06:04:20.351Z,2
2024-01-09T06:06:04.048Z,3
2024-01-09T06:07:47.777Z,3
2024-01-09T06:09:31.444Z,3
2024-01-09T06:11:15.417Z,3
2024-01-09T06:12:59.095Z,3
2024-01-09T06:14:42.678Z,3
2024-01-09T06:16:26.263Z,3
2024-01-09T06:18:10.003Z,2
2024-01-09T06:19:53.721Z,3
2024-01-09T06:21:37.460Z,3
2024-01-09T06:23:21.257Z,3
2024-01-09T06:25:04.764Z,3
2024-01-09T06:26:48.511Z,3
2024-01-09T06:28:32.170Z,3
2024-01-09T06:30:15.898Z,4
2024-01-09T06:31:59.784Z,3
2024-01-09T06:33:43.298Z,4
2024-01-09T06:35:26.983Z,3
2024-01-09T06:37:10.687Z,1
2024-01-09T06:38:54.406Z,3
2024-01-09T06:40:38.081Z,3
2024-01-09T06:42:22.096Z,4
2024-01-09T06:44:05.733Z,5
2024-01-09T06:45:49.297Z,4
2024-01-09T06:47:33.055Z,5
2024-01-09T06:49:16.635Z,7
2024-01-09T06:51:00.454Z,6
2024-01-09T06:52:44.025Z,8
2024-01-09T06:54:27.886Z,21
2024-01-09T06:56:11.475Z,22
2024-01-09T06:57:55.196Z,24
2024-01-09T06:59:38.916Z,27
2024-01-09T07:01:22.630Z,29
2024-01-09T07:03:06.395Z,21
2024-01-09T07:04:49.924Z,25
2024-01-09T07:06:33.658Z,30
2024-01-09T07:08:17.332Z,35
2024-01-09T07:10:01.033Z,41
2024-01-09T07:11:44.793Z,46
2024-01-09T07:13:28.435Z,51
2024-01-09T07:15:12.134Z,57
2024-01-09T07:16:55.873Z,63
2024-01-09T07:18:39.538Z,71
2024-01-09T07:20:23.239Z,79
2024-01-09T07:22:06.945Z,89
2024-01-09T07:23:50.960Z,96
2024-01-09T07:25:34.371Z,104
2024-01-09T07:27:18.072Z,114
2024-01-09T07:29:01.910Z,123
2024-01-09T07:30:45.667Z,138
2024-01-09T07:32:29.221Z,156
2024-01-09T07:34:12.870Z,183
2024-01-09T07:35:56.576Z,203
2024-01-09T07:37:40.274Z,222
2024-01-09T07:39:24.079Z,240
2024-01-09T07:41:08.027Z,263
2024-01-09T07:42:51.408Z,279
2024-01-09T07:44:35.111Z,296
2024-01-09T07:46:18.790Z,318
2024-01-09T07:48:02.513Z,365
2024-01-09T07:49:46.219Z,387
2024-01-09T07:51:30.015Z,415
2024-01-09T07:53:13.756Z,434
2024-01-09T07:54:57.310Z,449
2024-01-09T07:56:40.997Z,415
2024-01-09T07:58:24.779Z,411
2024-01-09T08:00:08.479Z,393
2024-01-09T08:01:52.439Z,410
2024-01-09T08:03:35.919Z,447
2024-01-09T08:05:19.514Z,515
2024-01-09T08:07:03.276Z,609
2024-01-09T08:08:47.111Z,576
2024-01-09T08:10:30.633Z,517
2024-01-09T08:12:14.408Z,662
2024-01-09T08:13:58.166Z,735
2024-01-09T08:15:41.725Z,723
2024-01-09T08:17:25.439Z,651
2024-01-09T08:19:09.197Z,660
2024-01-09T08:20:52.842Z,692
2024-01-09T08:22:36.544Z,736
2024-01-09T08:24:20.274Z,734
2024-01-09T08:26:03.978Z,736
2024-01-09T08:27:47.662Z,735
2024-01-09T08:29:31.350Z,736
2024-01-09T08:31:15.318Z,737
2024-01-09T08:32:58.822Z,736
2024-01-09T08:34:42.530Z,735
2024-01-09T08:36:26.274Z,734
2024-01-09T08:38:09.869Z,735
2024-01-09T08:39:53.570Z,737
2024-01-09T08:41:37.330Z,736
2024-01-09T08:43:21.087Z,734
2024-01-09T08:45:04.673Z,735
2024-01-09T08:46:48.434Z,736
2024-01-09T08:48:32.075Z,737
2024-01-09T08:50:15.824Z,735
2024-01-09T08:51:59.553Z,736
2024-01-09T08:53:43.179Z,735
2024-01-09T08:55:26.964Z,736
2024-01-09T08:57:10.593Z,735
2024-01-09T08:58:54.340Z,735
2024-01-09T09:00:37.994Z,735
2024-01-09T09:04:05.449Z,735
2024-01-09T09:05:49.124Z,735
2024-01-09T09:07:32.810Z,735
2024-01-09T09:09:16.515Z,735
2024-01-09T09:11:00.423Z,737
2024-01-09T09:12:43.974Z,736
2024-01-09T09:14:27.763Z,735
2024-01-09T09:16:11.355Z,734
2024-01-09T09:17:55.093Z,735
2024-01-09T09:19:38.788Z,736
2024-01-09T09:21:22.516Z,735
2024-01-09T09:23:06.251Z,735
2024-01-09T09:24:49.916Z,735
2024-01-09T09:26:33.570Z,736
2024-01-09T09:28:17.294Z,736
2024-01-09T09:30:01.078Z,735
2024-01-09T09:31:44.644Z,735
2024-01-09T09:33:28.345Z,736
2024-01-09T09:35:12.212Z,736
2024-01-09T09:36:55.855Z,735
2024-01-09T09:38:39.456Z,735
2024-01-09T09:40:23.162Z,735
2024-01-09T09:42:06.963Z,736
2024-01-09T09:43:50.637Z,736
2024-01-09T09:45:34.274Z,736
2024-01-09T09:47:17.999Z,735
2024-01-09T09:49:01.734Z,736
2024-01-09T09:50:45.408Z,736
2024-01-09T09:52:29.079Z,736
2024-01-09T09:54:12.783Z,726
2024-01-09T09:55:56.511Z,735
2024-01-09T09:57:40.196Z,736
2024-01-09T09:59:24.007Z,736
2024-01-09T10:01:07.919Z,735
2024-01-09T10:02:51.343Z,735
2024-01-09T10:04:35.026Z,736
2024-01-09T10:06:18.954Z,736
2024-01-09T10:08:02.407Z,736
2024-01-09T10:09:46.206Z,735
2024-01-09T10:11:29.904Z,735
2024-01-09T10:13:13.652Z,727
2024-01-09T10:14:57.220Z,737
2024-01-09T10:16:41.082Z,735
2024-01-09T10:18:24.626Z,735
2024-01-09T10:20:08.317Z,735
2024-01-09T10:21:52.193Z,736
2024-01-09T10:23:35.725Z,735
2024-01-09T10:25:19.416Z,735
2024-01-09T10:27:03.130Z,736
2024-01-09T10:28:46.889Z,737
2024-01-09T10:30:30.546Z,737
2024-01-09T10:32:14.234Z,727
2024-01-09T10:33:57.934Z,735
2024-01-09T10:35:41.634Z,735
2024-01-09T10:37:25.340Z,736
2024-01-09T10:39:09.055Z,736
2024-01-09T10:42:36.592Z,736
2024-01-09T10:44:20.149Z,737
2024-01-09T10:46:03.870Z,736
2024-01-09T10:47:47.562Z,736
2024-01-09T10:49:31.253Z,736
2024-01-09T10:51:15.280Z,735
2024-01-09T10:52:58.660Z,736
2024-01-09T10:54:42.441Z,736
2024-01-09T10:56:26.181Z,735
2024-01-09T10:58:09.801Z,735
2024-01-09T10:59:53.700Z,736
2024-01-09T11:01:37.366Z,736
2024-01-09T11:03:20.876Z,737
2024-01-09T11:05:04.664Z,736
2024-01-09T11:06:48.451Z,736
2024-01-09T11:08:32.099Z,737
2024-01-09T11:10:15.685Z,737
2024-01-09T11:11:59.429Z,735
2024-01-09T11:13:43.098Z,736
2024-01-09T11:15:26.898Z,729
2024-01-09T11:17:10.584Z,736
2024-01-09T11:18:54.270Z,737
2024-01-09T11:20:37.898Z,735
2024-01-09T11:22:21.772Z,736
2024-01-09T11:24:05.367Z,736
2024-01-09T11:25:49.080Z,737
2024-01-09T11:27:32.767Z,736
2024-01-09T11:29:16.432Z,736
2024-01-09T11:31:00.113Z,736
2024-01-09T11:32:43.815Z,736
2024-01-09T11:34:27.523Z,736
2024-01-09T11:36:11.226Z,736
2024-01-09T11:37:54.935Z,735
2024-01-09T11:39:38.631Z,736
2024-01-09T11:41:22.337Z,737
2024-01-09T11:43:06.064Z,736
2024-01-09T11:44:49.736Z,736
2024-01-09T11:46:33.469Z,736
2024-01-09T11:48:17.156Z,737
2024-01-09T11:50:00.842Z,736
2024-01-09T11:51:44.729Z,736
2024-01-09T11:53:28.286Z,736
2024-01-09T11:55:12.036Z,737
2024-01-09T11:56:55.679Z,737
2024-01-09T11:58:39.350Z,727
2024-01-09T12:00:23.084Z,737
2024-01-09T12:02:07.017Z,738
2024-01-09T12:03:50.590Z,737
2024-01-09T12:05:34.188Z,737
2024-01-09T12:07:17.980Z,735
2024-01-09T12:09:01.779Z,736
2024-01-09T12:10:45.276Z,737
2024-01-09T12:12:29.009Z,736
2024-01-09T12:14:12.923Z,736
2024-01-09T12:15:56.402Z,736
2024-01-09T12:17:40.086Z,728
2024-01-09T12:19:23.819Z,736
2024-01-09T12:21:07.819Z,732
2024-01-09T12:22:51.209Z,736
2024-01-09T12:24:34.898Z,736
2024-01-09T12:26:18.589Z,737
2024-01-09T12:28:02.396Z,737
2024-01-09T12:29:46.008Z,736
2024-01-09T12:31:29.728Z,736
2024-01-09T12:33:13.425Z,737
2024-01-09T12:34:57.163Z,737
2024-01-09T12:36:40.810Z,737
2024-01-09T12:38:24.510Z,736
2024-01-09T12:40:08.217Z,737
2024-01-09T12:41:51.973Z,738
2024-01-09T12:43:35.642Z,737
2024-01-09T12:45:19.328Z,736
2024-01-09T12:47:03.025Z,736
2024-01-09T12:48:46.746Z,737
2024-01-09T12:50:30.446Z,727
2024-01-09T12:52:14.425Z,735
2024-01-09T12:53:58.103Z,737
2024-01-09T12:55:41.531Z,735
2024-01-09T12:57:25.528Z,736
2024-01-09T12:59:08.959Z,737
2024-01-09T13:00:52.711Z,737
2024-01-09T13:02:36.358Z,737
2024-01-09T13:04:20.080Z,736
2024-01-09T13:06:04.116Z,738
2024-01-09T13:07:47.626Z,736
2024-01-09T13:09:31.148Z,736
2024-01-09T13:11:15.194Z,736
2024-01-09T13:12:58.785Z,738
2024-01-09T13:14:42.385Z,738
2024-01-09T13:16:26.085Z,737
2024-01-09T13:18:09.773Z,736
2024-01-09T13:19:53.364Z,738
2024-01-09T13:21:37.130Z,737
2024-01-09T13:23:20.779Z,727
2024-01-09T13:25:04.682Z,736
2024-01-09T13:26:48.188Z,737
2024-01-09T13:28:31.933Z,738
2024-01-09T13:30:15.587Z,737
2024-01-09T13:31:59.288Z,736
2024-01-09T13:33:42.973Z,737
2024-01-09T13:37:10.493Z,736
2024-01-09T13:38:54.189Z,736
2024-01-09T13:40:37.800Z,737
2024-01-09T13:42:21.498Z,737
2024-01-09T13:44:05.273Z,737
2024-01-09T13:45:48.919Z,737
2024-01-09T13:47:32.621Z,736
2024-01-09T13:49:16.321Z,737
2024-01-09T13:51:00.028Z,738
2024-01-09T13:52:43.713Z,738
2024-01-09T13:54:27.418Z,737
2024-01-09T13:56:11.382Z,728
2024-01-09T13:57:54.873Z,737
2024-01-09T13:59:38.796Z,738
2024-01-09T14:01:22.498Z,737
2024-01-09T14:03:06.266Z,737
2024-01-09T14:04:49.873Z,736
2024-01-09T14:06:33.421Z,737
2024-01-09T14:08:17.176Z,737
2024-01-09T14:10:00.844Z,737
2024-01-09T14:11:44.680Z,737
2024-01-09T14:13:28.396Z,737
2024-01-09T14:15:11.945Z,737
2024-01-09T14:16:55.643Z,738
2024-01-09T14:18:39.549Z,737
2024-01-09T14:20:23.010Z,737
2024-01-09T14:22:06.677Z,737
2024-01-09T14:23:50.371Z,738
2024-01-09T14:25:34.080Z,737
2024-01-09T14:27:17.996Z,737
2024-01-09T14:29:01.474Z,736
2024-01-09T14:30:45.189Z,738
2024-01-09T14:32:28.938Z,738
2024-01-09T14:34:12.586Z,737
2024-01-09T14:35:56.327Z,738
2024-01-09T14:37:40.160Z,738
2024-01-09T14:39:23.731Z,738
2024-01-09T14:41:07.405Z,737
2024-01-09T14:42:51.131Z,727
2024-01-09T14:44:34.813Z,737
2024-01-09T14:46:18.808Z,737
2024-01-09T14:48:02.404Z,738
2024-01-09T14:49:46.028Z,737
2024-01-09T14:51:29.782Z,737
2024-01-09T14:53:13.465Z,738
2024-01-09T14:54:57.066Z,493
2024-01-09T14:56:40.805Z,427
2024-01-09T14:58:24.468Z,419
2024-01-09T15:00:08.120Z,453
2024-01-09T15:01:51.832Z,425
2024-01-09T15:03:35.543Z,472
2024-01-09T15:05:19.229Z,582
2024-01-09T15:07:03.010Z,506
2024-01-09T15:08:46.691Z,372
2024-01-09T15:10:30.445Z,310
2024-01-09T15:12:14.122Z,301
2024-01-09T15:13:57.761Z,310
2024-01-09T15:15:41.454Z,293
2024-01-09T15:17:25.224Z,237
2024-01-09T15:19:08.864Z,207
2024-01-09T15:20:52.876Z,191
2024-01-09T15:22:36.292Z,175
2024-01-09T15:24:20.004Z,163
2024-01-09T15:26:03.662Z,152
2024-01-09T15:27:47.380Z,141
2024-01-09T15:29:31.120Z,130
2024-01-09T15:31:15.064Z,117
2024-01-09T15:32:58.483Z,109
2024-01-09T15:34:42.181Z,101
2024-01-09T15:36:25.887Z,94
2024-01-09T15:38:09.594Z,86
2024-01-09T15:39:53.295Z,80
2024-01-09T15:41:37.109Z,73
2024-01-09T15:43:20.697Z,67
2024-01-09T15:45:04.496Z,62
2024-01-09T15:46:48.128Z,56
2024-01-09T15:48:31.807Z,52
2024-01-09T15:50:15.547Z,45
2024-01-09T15:51:59.339Z,41
2024-01-09T15:53:42.937Z,37
2024-01-09T15:55:26.605Z,32
2024-01-09T15:57:10.341Z,29
2024-01-09T15:58:54.016Z,25
2024-01-09T16:00:37.721Z,24
2024-01-09T16:02:21.420Z,19
2024-01-09T16:04:05.148Z,16
2024-01-09T16:05:48.822Z,14
2024-01-09T16:07:32.525Z,12
2024-01-09T16:09:16.244Z,10
2024-01-09T16:10:59.929Z,8
2024-01-09T16:12:43.910Z,7
2024-01-09T16:14:27.581Z,6
2024-01-09T16:16:11.227Z,5
2024-01-09T16:17:54.975Z,4
2024-01-09T16:19:38.437Z,4
2024-01-09T16:21:22.364Z,4
2024-01-09T16:23:05.903Z,3
2024-01-09T16:24:49.554Z,3
2024-01-09T16:26:33.259Z,3
2024-01-09T16:28:16.951Z,2
2024-01-09T16:30:00.813Z,2
2024-01-09T16:31:44.438Z,2
2024-01-09T16:33:28.073Z,4
2024-01-09T16:35:11.769Z,3
2024-01-09T16:36:55.475Z,3
2024-01-09T16:38:39.180Z,2
2024-01-09T16:40:22.919Z,3
2024-01-09T16:42:06.879Z,3
2024-01-09T16:43:50.360Z,1
2024-01-09T16:45:33.991Z,2
2024-01-09T16:47:17.986Z,3
2024-01-09T16:49:01.594Z,2
2024-01-09T16:50:45.225Z,2
2024-01-09T16:54:12.690Z,2
2024-01-09T16:55:56.352Z,4
2024-01-09T16:57:40.046Z,3
2024-01-09T16:59:23.845Z,3
2024-01-09T17:01:07.569Z,3
2024-01-09T17:02:51.255Z,2
2024-01-09T17:04:34.777Z,3
2024-01-09T17:06:18.403Z,2
2024-01-09T17:08:02.343Z,3
2024-01-09T17:09:45.824Z,3
2024-01-09T17:11:29.512Z,3
2024-01-09T17:13:13.266Z,3
2024-01-09T17:14:56.979Z,3
2024-01-09T17:16:40.628Z,2
2024-01-09T17:18:24.478Z,2
2024-01-09T17:20:08.297Z,2
2024-01-09T17:21:52.009Z,14
2024-01-09T17:23:35.745Z,14
2024-01-09T17:25:19.421Z,14
2024-01-09T17:27:03.151Z,14
2024-01-09T17:28:46.867Z,14
2024-01-09T17:30:30.510Z,13
2024-01-09T17:32:13.944Z,3
2024-01-09T17:33:57.934Z,3
2024-01-09T17:35:41.438Z,3
2024-01-09T17:37:25.202Z,3
2024-01-09T17:39:09.013Z,3
2024-01-09T17:40:52.490Z,2
2024-01-09T17:42:36.269Z,3
2024-01-09T17:44:19.908Z,2
2024-01-09T17:46:03.855Z,2
2024-01-09T17:47:47.326Z,2
2024-01-09T17:49:30.978Z,3
2024-01-09T17:51:14.979Z,3
2024-01-09T17:52:58.482Z,2
2024-01-09T17:54:42.268Z,3
2024-01-09T17:56:25.858Z,2
2024-01-09T17:58:09.551Z,3
2024-01-09T17:59:53.253Z,2
2024-01-09T18:01:36.990Z,12
2024-01-09T18:03:20.601Z,23
2024-01-09T18:05:04.353Z,24
2024-01-09T18:06:48.016Z,24
2024-01-09T18:08:31.721Z,24
2024-01-09T18:10:15.452Z,24
2024-01-09T18:11:59.126Z,3
2024-01-09T18:13:42.813Z,3
2024-01-09T18:15:26.535Z,2
2024-01-09T18:17:10.226Z,3
2024-01-09T18:18:53.920Z,3
2024-01-09T18:20:37.623Z,3
2024-01-09T18:22:21.472Z,3
2024-01-09T18:24:05.056Z,3
2024-01-09T18:25:48.740Z,3
2024-01-09T18:27:32.577Z,3
2024-01-09T18:29:16.169Z,3
2024-01-09T18:31:00.009Z,2
2024-01-09T18:32:43.542Z,4
2024-01-09T18:34:27.316Z,3
2024-01-09T18:36:11.003Z,3
2024-01-09T18:37:54.664Z,3
2024-01-09T18:39:38.368Z,2
2024-01-09T18:41:22.294Z,2
2024-01-09T18:43:05.821Z,3
2024-01-09T18:44:49.605Z,3
2024-01-09T18:46:33.189Z,2
2024-01-09T18:48:16.874Z,3
2024-01-09T18:50:00.725Z,2
2024-01-09T18:51:44.576Z,3
2024-01-09T18:53:28.048Z,2
2024-01-09T18:55:11.727Z,2
2024-01-09T18:56:55.389Z,3
2024-01-09T18:58:39.106Z,3
2024-01-09T19:00:22.811Z,3
2024-01-09T19:02:06.803Z,2
2024-01-09T19:03:50.220Z,2
2024-01-09T19:05:33.903Z,2
2024-01-09T19:07:17.633Z,3
2024-01-09T19:09:01.305Z,2
2024-01-09T19:10:45.006Z,3
2024-01-09T19:12:29.047Z,14
2024-01-09T19:14:12.452Z,15
2024-01-09T19:15:56.163Z,14
2024-01-09T19:17:39.805Z,14
2024-01-09T19:19:23.547Z,14
2024-01-09T19:21:07.467Z,13
2024-01-09T19:22:51.057Z,14
2024-01-09T19:24:34.615Z,14
2024-01-09T19:26:18.331Z,13
2024-01-09T19:28:02.107Z,13
2024-01-09T19:29:45.821Z,13
2024-01-09T19:31:29.566Z,14
2024-01-09T19:33:13.145Z,14
2024-01-09T19:34:56.845Z,14
2024-01-09T19:36:40.564Z,14
2024-01-09T19:38:24.368Z,14
2024-01-09T19:40:07.924Z,15
2024-01-09T19:41:51.874Z,15
2024-01-09T19:43:35.344Z,23
2024-01-09T19:45:19.035Z,24
2024-01-09T19:47:02.741Z,23
2024-01-09T19:48:46.474Z,22
2024-01-09T19:50:30.295Z,24
2024-01-09T19:52:14.017Z,24
2024-01-09T19:53:57.559Z,24
2024-01-09T19:55:41.263Z,23
2024-01-09T19:57:24.962Z,24
2024-01-09T19:59:08.667Z,24
2024-01-09T20:00:52.414Z,24
2024-01-09T20:02:36.118Z,24
2024-01-09T20:04:19.833Z,24
2024-01-09T20:06:03.530Z,24
2024-01-09T20:07:47.173Z,24
2024-01-09T20:09:30.980Z,24
2024-01-09T20:11:14.865Z,24
2024-01-09T20:12:58.600Z,24
2024-01-09T20:14:42.082Z,23
2024-01-09T20:16:25.785Z,23
2024-01-09T20:18:09.390Z,24
2024-01-09T20:19:53.124Z,23
2024-01-09T20:21:37.072Z,24
2024-01-09T20:23:20.527Z,24
2024-01-09T20:25:04.193Z,24
2024-01-09T20:26:47.973Z,24
2024-01-09T20:28:31.809Z,24
2024-01-09T20:30:15.586Z,24
2024-01-09T20:31:59.016Z,24
2024-01-09T20:33:42.872Z,23
2024-01-09T20:35:26.576Z,24
2024-01-09T20:37:10.119Z,24
2024-01-09T20:38:53.892Z,24
2024-01-09T20:40:37.781Z,24
2024-01-09T20:42:21.412Z,24
2024-01-09T20:44:05.088Z,24
2024-01-09T20:45:48.752Z,24
2024-01-09T20:47:32.556Z,25
2024-01-09T20:49:16.231Z,24
2024-01-09T20:51:00.075Z,23
2024-01-09T20:52:43.670Z,3
2024-01-09T20:54:27.289Z,3
2024-01-09T20:56:11.201Z,3
2024-01-09T20:57:54.613Z,4
2024-01-09T20:59:38.295Z,3
2024-01-09T21:01:22.066Z,3
2024-01-09T21:03:05.655Z,3
2024-01-09T21:04:49.388Z,3
2024-01-09T21:06:33.073Z,3
2024-01-09T21:08:16.772Z,3
2024-01-09T21:10:00.514Z,3
2024-01-09T21:11:44.341Z,4
2024-01-09T21:13:28.109Z,3
2024-01-09T21:15:11.585Z,4
2024-01-09T21:16:55.354Z,4
2024-01-09T21:18:38.985Z,3
2024-01-09T21:20:22.728Z,3
2024-01-09T21:22:06.398Z,3
2024-01-09T21:23:50.117Z,3
2024-01-09T21:25:33.866Z,3
2024-01-09T21:27:17.498Z,3
2024-01-09T21:29:01.240Z,3
2024-01-09T21:30:44.950Z,3
2024-01-09T21:32:28.687Z,3
2024-01-09T21:34:12.362Z,3
2024-01-09T21:35:56.041Z,3
2024-01-09T21:37:39.718Z,3
2024-01-09T21:39:23.419Z,3
2024-01-09T21:41:07.118Z,3
2024-01-09T21:42:50.870Z,3
2024-01-09T21:44:34.524Z,3
2024-01-09T21:46:18.303Z,2
2024-01-09T21:48:01.926Z,3
2024-01-09T21:49:45.632Z,2
2024-01-09T21:51:29.362Z,3
2024-01-09T21:53:13.193Z,4
2024-01-09T21:54:56.798Z,3
2024-01-09T21:56:40.586Z,3
2024-01-09T21:58:24.245Z,3
2024-01-09T22:00:07.839Z,3
2024-01-09T22:01:51.610Z,3
2024-01-09T22:03:35.282Z,3
2024-01-09T22:05:18.959Z,3
2024-01-09T22:07:02.676Z,3
2024-01-09T22:08:46.396Z,3
2024-01-09T22:12:13.765Z,3
2024-01-09T22:13:57.553Z,3
2024-01-09T22:15:41.208Z,3
2024-01-09T22:17:24.879Z,15
2024-01-09T22:19:08.708Z,15
2024-01-09T22:20:52.280Z,15
2024-01-09T22:22:36.003Z,15
2024-01-09T22:24:19.763Z,3
2024-01-09T22:26:03.386Z,4
2024-01-09T22:27:47.086Z,4
2024-01-09T22:29:30.829Z,2
2024-01-09T22:31:14.666Z,3
2024-01-09T22:32:58.192Z,3
2024-01-09T22:34:41.911Z,3
2024-01-09T22:36:25.596Z,3
2024-01-09T22:38:09.293Z,3
2024-01-09T22:39:53.006Z,3
2024-01-09T22:41:36.841Z,2
2024-01-09T22:43:20.440Z,3
2024-01-09T22:45:04.104Z,3
2024-01-09T22:46:47.878Z,3
2024-01-09T22:48:31.568Z,3
2024-01-09T22:50:15.254Z,3
2024-01-09T22:51:59.004Z,3
2024-01-09T22:53:42.696Z,2
2024-01-09T22:55:26.381Z,3
2024-01-09T22:57:10.149Z,3
2024-01-09T22:58:53.716Z,3
2024-01-09T23:00:37.428Z,3
2024-01-09T23:02:21.125Z,2
2024-01-09T23:04:04.825Z,3
2024-01-09T23:05:48.726Z,4
2024-01-09T23:07:32.246Z,3
2024-01-09T23:09:15.949Z,4
2024-01-09T23:10:59.640Z,3
2024-01-09T23:12:43.374Z,3
2024-01-09T23:14:27.054Z,3
2024-01-09T23:16:10.766Z,3
2024-01-09T23:17:54.445Z,2
2024-01-09T23:19:38.178Z,2
2024-01-09T23:21:21.880Z,2
2024-01-09T23:23:05.547Z,2
2024-01-09T23:24:49.336Z,2
2024-01-09T23:26:33.014Z,2
2024-01-09T23:28:16.674Z,2
2024-01-09T23:31:44.073Z,3
2024-01-09T23:33:27.779Z,2
2024-01-09T23:35:11.499Z,3
2024-01-09T23:36:55.172Z,1
2024-01-09T23:38:39.022Z,2
2024-01-09T23:40:22.603Z,2
2024-01-09T23:42:06.365Z,3
2024-01-09T23:43:50.017Z,2
2024-01-09T23:45:33.889Z,3
2024-01-09T23:49:01.091Z,2
2024-01-09T23:50:44.979Z,3
2024-01-09T23:52:28.506Z,2
2024-01-09T23:54:12.193Z,2
2024-01-09T23:55:55.906Z,3
2024-01-09T23:57:39.694Z,3
2024-01-09T23:59:23.296Z,2
